»·PEaware :: WAT1409 KFUL-KGCN

WAT1409 :: KFUL-KGCN

FLIGHT INFORMATION

Flight Status: Arrived
Operator:
Walker Air Transport
More flights by this operator :: More flights under this callsign
Pilot: Matthew T. (18767)
Aircraft: BEECH AIRCRAFT PREMIER
(PRM1)
More flights by this aircraft type
Origin: KFUL Fullerton Mun
United States
Destination: KGCN Grand Canyon Natl Park
United States
More flights between these airports :: More routes between these airports
Route: SLI V8 PDZ J60 HEC J64 PGS BISOP
File this flight plan on PilotEdge
Remarks: RMK / SIMBRIEF
Altitude:
(Current/Filed)
41,000ft
Speed:
(Current/Filed)
444kts
Departed: 01-Feb-22 02:05 PM
Arrived: 01-Feb-22 03:16 PM
Distance/Time
Traveled:
313nm/1:11
Distance/Time
To Go:
Arrived

Flight Plot

Page will automatically refresh every two minutes.

Flight plan parsing failed; only flown route is shown


Map Options




Map Legend


Flown Route
Filed Route
Departure Airport
Arrival Airport
Navaid (VOR, NDB)
Fix

Horizontal Profiles

Position Reports

Time Latitude Longitude Heading Altitude Ground
Speed
01-Feb-22 13:52 33.870986 -117.978521 258 96ft 0kts
01-Feb-22 13:53 33.870986 -117.978521 258 96ft 0kts
01-Feb-22 13:54 33.870986 -117.978521 258 96ft 0kts
01-Feb-22 13:55 33.870986 -117.978521 258 96ft 0kts
01-Feb-22 13:56 33.870986 -117.978521 258 96ft 0kts
01-Feb-22 13:57 33.870986 -117.978521 258 96ft 0kts
01-Feb-22 13:58 33.870986 -117.978521 258 96ft 0kts
01-Feb-22 13:59 33.870986 -117.978521 258 96ft 0kts
01-Feb-22 14:00 33.870986 -117.978521 258 96ft 0kts
01-Feb-22 14:01 33.871852 -117.978443 69 95ft 11kts
01-Feb-22 14:02 33.872548 -117.974929 68 99ft 0kts
01-Feb-22 14:03 33.872548 -117.974927 68 99ft 0kts
01-Feb-22 14:04 33.872373 -117.978005 257 96ft 77kts
01-Feb-22 14:05 33.850923 -118.016939 195 1635ft 200kts
01-Feb-22 14:06 33.800909 -117.975624 132 1979ft 247kts
01-Feb-22 14:07 33.758428 -117.924975 168 3514ft 190kts
01-Feb-22 14:08 33.715005 -117.957580 221 4694ft 191kts
01-Feb-22 14:09 33.668464 -118.005945 221 5749ft 236kts
01-Feb-22 14:10 33.618397 -118.058220 221 8397ft 241kts
01-Feb-22 14:11 33.610307 -118.122768 327 11004ft 253kts
01-Feb-22 14:12 33.672148 -118.113745 50 13368ft 275kts
01-Feb-22 14:13 33.738822 -118.073840 15 15687ft 280kts
01-Feb-22 14:14 33.794841 -118.011742 70 17840ft 312kts
01-Feb-22 14:15 33.820618 -117.910724 69 19736ft 327kts
01-Feb-22 14:16 33.847969 -117.804739 69 21492ft 341kts
01-Feb-22 14:17 33.876416 -117.693920 69 23107ft 350kts
01-Feb-22 14:18 33.904388 -117.584573 69 24295ft 334kts
01-Feb-22 14:19 33.946548 -117.495696 35 25669ft 295kts
01-Feb-22 14:20 34.004430 -117.426933 35 26700ft 301kts
01-Feb-22 14:21 34.066230 -117.352754 35 27918ft 320kts
01-Feb-22 14:22 34.130167 -117.275761 36 29165ft 329kts
01-Feb-22 14:23 34.195945 -117.196506 36 30270ft 340kts
01-Feb-22 14:24 34.263335 -117.115031 35 31339ft 348kts
01-Feb-22 14:25 34.332597 -117.031049 35 32235ft 360kts
01-Feb-22 14:26 34.404098 -116.944184 34 33060ft 371kts
01-Feb-22 14:27 34.477644 -116.854567 34 34040ft 374kts
01-Feb-22 14:28 34.549678 -116.766712 33 35154ft 370kts
01-Feb-22 14:29 34.620207 -116.680296 33 36348ft 358kts
01-Feb-22 14:30 34.690989 -116.593513 33 37009ft 365kts
01-Feb-22 14:31 34.762620 -116.505325 33 37689ft 368kts
01-Feb-22 14:32 34.817437 -116.396105 66 38240ft 396kts
01-Feb-22 14:33 34.853572 -116.272829 66 39179ft 382kts
01-Feb-22 14:34 34.887665 -116.157514 65 40294ft 350kts
01-Feb-22 14:35 34.919811 -116.048640 65 40964ft 329kts
01-Feb-22 14:36 34.950859 -115.943168 65 40992ft 334kts
01-Feb-22 14:37 34.982514 -115.835028 66 40993ft 345kts
01-Feb-22 14:38 35.015077 -115.723040 66 40983ft 358kts
01-Feb-22 14:39 35.048981 -115.606516 67 40973ft 372kts
01-Feb-22 14:40 35.083984 -115.485345 67 40948ft 386kts
01-Feb-22 14:41 35.120370 -115.359010 67 40757ft 406kts
01-Feb-22 14:42 35.162846 -115.210602 68 37593ft 474kts
01-Feb-22 14:43 35.205641 -115.060389 68 35960ft 466kts
01-Feb-22 14:44 35.247791 -114.911632 68 33960ft 463kts
01-Feb-22 14:45 35.289474 -114.763730 68 31974ft 455kts
01-Feb-22 14:46 35.329902 -114.619512 68 29990ft 437kts
01-Feb-22 14:47 35.368157 -114.482395 68 28020ft 417kts
01-Feb-22 14:48 35.404732 -114.350659 68 26058ft 401kts
01-Feb-22 14:49 35.439705 -114.223927 69 24917ft 385kts
01-Feb-22 14:50 35.474038 -114.099247 69 23949ft 381kts
01-Feb-22 14:51 35.506526 -113.980576 69 21935ft 356kts
01-Feb-22 14:52 35.537083 -113.868527 69 19833ft 342kts
01-Feb-22 14:53 35.566780 -113.759191 69 17339ft 328kts
01-Feb-22 14:54 35.594411 -113.657044 70 14840ft 306kts
01-Feb-22 14:55 35.620255 -113.560970 72 12341ft 289kts
01-Feb-22 14:56 35.621780 -113.461792 91 11024ft 298kts
01-Feb-22 14:57 35.618360 -113.359111 91 11019ft 302kts
01-Feb-22 14:58 35.614720 -113.255700 92 11018ft 303kts
01-Feb-22 14:59 35.610992 -113.152229 92 11022ft 303kts
01-Feb-22 15:00 35.607192 -113.049198 92 11026ft 302kts
01-Feb-22 15:01 35.603303 -112.946083 92 11024ft 302kts
01-Feb-22 15:02 35.599300 -112.842240 93 11020ft 303kts
01-Feb-22 15:03 35.595179 -112.738481 93 11019ft 304kts
01-Feb-22 15:04 35.590968 -112.634350 93 11019ft 304kts
01-Feb-22 15:05 35.586744 -112.531631 93 11020ft 299kts
01-Feb-22 15:06 35.602422 -112.437799 35 10854ft 300kts
01-Feb-22 15:07 35.677894 -112.417606 1 10003ft 255kts
01-Feb-22 15:08 35.736276 -112.374393 39 9029ft 244kts
01-Feb-22 15:09 35.783876 -112.324387 39 9008ft 216kts
01-Feb-22 15:10 35.829869 -112.276075 39 8441ft 234kts
01-Feb-22 15:11 35.874725 -112.228868 39 8221ft 180kts
01-Feb-22 15:12 35.906777 -112.195070 39 7363ft 131kts
01-Feb-22 15:13 35.933915 -112.166500 40 6790ft 126kts
01-Feb-22 15:14 35.956862 -112.142121 33 6612ft 68kts
01-Feb-22 15:15 35.961201 -112.136458 125 6625ft 17kts
01-Feb-22 15:16 35.958211 -112.138583 162 6623ft 3kts
01-Feb-22 15:17 35.958084 -112.138644 222 6623ft 0kts
01-Feb-22 15:18 35.958084 -112.138644 222 6623ft 0kts
01-Feb-22 15:19 35.958084 -112.138644 222 6623ft 0kts

Navigation Log

Ident Type
Flight plan parsing failed, navigation log unavailable